createdAt,value
2023-03-21T00:02:07.633Z,6.60
2023-03-21T00:04:48.586Z,6.60
2023-03-21T00:07:18.169Z,6.60
2023-03-21T00:09:45.311Z,6.60
2023-03-21T00:12:12.859Z,6.60
2023-03-21T00:14:40.041Z,6.60
2023-03-21T00:17:07.226Z,6.60
2023-03-21T00:19:38.459Z,6.60
2023-03-21T00:22:08.373Z,6.60
2023-03-21T00:24:36.754Z,6.60
2023-03-21T00:27:29.727Z,6.60
2023-03-21T00:29:51.737Z,6.60
2023-03-21T00:32:20.118Z,6.70
2023-03-21T00:35:03.929Z,6.70
2023-03-21T00:37:35.125Z,6.60
2023-03-21T00:40:02.075Z,6.70
2023-03-21T00:42:29.357Z,6.70
2023-03-21T00:44:56.609Z,6.70
2023-03-21T00:47:25.759Z,6.70
2023-03-21T00:49:53.388Z,6.70
2023-03-21T00:52:34.183Z,6.70
2023-03-21T00:55:07.662Z,6.80
2023-03-21T00:57:39.022Z,6.80
2023-03-21T01:00:10.523Z,6.80
2023-03-21T01:02:38.909Z,6.80
2023-03-21T01:05:06.267Z,6.80
2023-03-21T01:07:33.210Z,6.80
2023-03-21T01:10:00.775Z,6.80
2023-03-21T01:12:28.550Z,6.80
2023-03-21T01:14:55.492Z,6.90
2023-03-21T01:17:22.529Z,6.80
2023-03-21T01:19:52.240Z,6.80
2023-03-21T01:22:19.939Z,6.90
2023-03-21T01:24:54.187Z,6.90
2023-03-21T01:27:23.952Z,6.90
2023-03-21T01:29:51.121Z,6.90
2023-03-21T01:32:18.106Z,6.90
2023-03-21T01:34:45.009Z,6.90
2023-03-21T01:37:11.990Z,6.90
2023-03-21T01:39:38.948Z,6.90
2023-03-21T01:42:05.980Z,6.90
2023-03-21T01:44:33.108Z,6.90
2023-03-21T01:47:15.477Z,6.90
2023-03-21T01:49:46.703Z,6.90
2023-03-21T01:52:43.353Z,7.00
2023-03-21T01:55:14.135Z,7.00
2023-03-21T01:58:03.936Z,7.00
2023-03-21T02:00:32.971Z,7.00
2023-03-21T02:03:13.670Z,7.00
2023-03-21T02:05:49.591Z,7.10
2023-03-21T02:08:17.027Z,7.10
2023-03-21T02:10:47.198Z,7.10
2023-03-21T02:13:16.021Z,7.10
2023-03-21T02:15:51.330Z,7.10
2023-03-21T02:18:38.904Z,7.10
2023-03-21T02:21:36.623Z,7.10
2023-03-21T02:24:25.375Z,7.10
2023-03-21T02:27:16.076Z,7.20
2023-03-21T02:29:48.775Z,7.20
2023-03-21T02:32:37.671Z,7.30
2023-03-21T02:35:51.805Z,7.30
2023-03-21T02:38:30.400Z,7.40
2023-03-21T02:41:13.209Z,7.40
2023-03-21T02:43:54.316Z,7.30
2023-03-21T02:46:42.920Z,7.40
2023-03-21T02:49:54.827Z,7.40
2023-03-21T02:52:39.158Z,7.40
2023-03-21T02:55:14.625Z,7.40
2023-03-21T02:57:44.509Z,7.50
2023-03-21T03:00:19.825Z,7.50
2023-03-21T03:02:48.846Z,7.50
2023-03-21T03:05:21.959Z,7.50
2023-03-21T03:07:59.895Z,7.40
2023-03-21T03:10:44.573Z,7.50
2023-03-21T03:13:23.802Z,7.40
2023-03-21T03:16:05.530Z,7.50
2023-03-21T03:18:57.239Z,7.50
2023-03-21T03:21:42.371Z,7.50
2023-03-21T03:24:16.888Z,7.60
2023-03-21T03:27:08.916Z,7.60
2023-03-21T03:29:39.263Z,7.60
2023-03-21T03:32:16.143Z,7.60
2023-03-21T03:34:49.861Z,7.50
2023-03-21T03:37:20.643Z,7.60
2023-03-21T03:39:58.265Z,7.60
2023-03-21T03:42:30.691Z,7.60
2023-03-21T03:44:58.370Z,7.60
2023-03-21T03:47:39.904Z,7.60
2023-03-21T03:50:27.736Z,7.60
2023-03-21T03:53:07.103Z,7.60
2023-03-21T03:55:37.789Z,7.60
2023-03-21T03:58:13.202Z,7.60
2023-03-21T04:00:47.334Z,7.70
2023-03-21T04:03:14.774Z,7.70
2023-03-21T04:05:42.199Z,7.80
2023-03-21T04:08:09.639Z,7.80
2023-03-21T04:10:36.938Z,7.80
2023-03-21T04:13:04.036Z,7.80
2023-03-21T04:15:31.086Z,7.80
2023-03-21T04:17:58.151Z,7.80
2023-03-21T04:20:43.166Z,7.80
2023-03-21T04:23:10.934Z,7.90
2023-03-21T04:25:44.549Z,7.90
2023-03-21T04:28:15.004Z,7.90
2023-03-21T04:30:51.935Z,7.90
2023-03-21T04:33:26.475Z,7.90
2023-03-21T04:35:59.546Z,8.00
2023-03-21T04:38:30.863Z,8.00
2023-03-21T04:40:58.456Z,8.00
2023-03-21T04:43:25.708Z,8.00
2023-03-21T04:45:52.897Z,8.00
2023-03-21T04:48:20.622Z,8.10
2023-03-21T04:50:47.569Z,8.10
2023-03-21T04:53:14.527Z,8.10
2023-03-21T04:55:41.460Z,8.10
2023-03-21T04:58:08.496Z,8.10
2023-03-21T05:00:39.245Z,8.10
2023-03-21T05:03:10.284Z,8.10
2023-03-21T05:05:38.579Z,8.10
2023-03-21T05:08:06.663Z,8.10
2023-03-21T05:10:34.073Z,8.10
2023-03-21T05:13:01.213Z,8.10
2023-03-21T05:15:30.470Z,8.10
2023-03-21T05:17:58.778Z,8.20
2023-03-21T05:20:26.407Z,8.20
2023-03-21T05:22:53.571Z,8.20
2023-03-21T05:25:34.093Z,8.20
2023-03-21T05:28:02.385Z,8.30
2023-03-21T05:30:30.283Z,8.30
2023-03-21T05:32:58.077Z,8.30
2023-03-21T05:35:26.893Z,8.30
2023-03-21T05:37:54.178Z,8.30
2023-03-21T05:40:21.357Z,8.30
2023-03-21T05:42:48.786Z,8.30
2023-03-21T05:45:16.324Z,8.30
2023-03-21T05:47:43.405Z,8.30
2023-03-21T05:50:11.964Z,8.30
2023-03-21T05:52:39.349Z,8.40
2023-03-21T05:55:07.281Z,8.40
2023-03-21T05:57:39.402Z,8.40
2023-03-21T06:00:08.517Z,8.40
2023-03-21T06:02:35.846Z,8.40
2023-03-21T06:05:02.815Z,8.40
2023-03-21T06:07:30.859Z,8.40
2023-03-21T06:09:58.028Z,8.40
2023-03-21T06:12:25.140Z,8.40
2023-03-21T06:14:52.130Z,8.40
2023-03-21T06:17:19.107Z,8.40
2023-03-21T06:19:46.224Z,8.40
2023-03-21T06:22:13.247Z,8.40
2023-03-21T06:24:40.334Z,8.40
2023-03-21T06:27:07.342Z,8.40
2023-03-21T06:29:34.531Z,8.40
2023-03-21T06:32:01.537Z,8.40
2023-03-21T06:34:28.501Z,8.40
2023-03-21T06:36:55.919Z,8.50
2023-03-21T06:39:23.116Z,8.40
2023-03-21T06:41:50.156Z,8.40
2023-03-21T06:44:17.309Z,8.50
2023-03-21T06:46:44.268Z,8.50
2023-03-21T06:49:11.254Z,8.50
2023-03-21T06:51:38.399Z,8.50
2023-03-21T06:54:05.704Z,8.50
2023-03-21T06:56:32.794Z,8.50
2023-03-21T06:59:00.006Z,8.50
2023-03-21T07:01:28.087Z,8.50
2023-03-21T07:03:57.569Z,8.50
2023-03-21T07:06:26.701Z,8.50
2023-03-21T07:08:55.000Z,8.60
2023-03-21T07:11:23.339Z,8.60
2023-03-21T07:13:51.471Z,8.50
2023-03-21T07:16:19.538Z,8.50
2023-03-21T07:18:46.809Z,8.50
2023-03-21T07:21:14.429Z,8.60
2023-03-21T07:23:41.532Z,8.60
2023-03-21T07:26:08.920Z,8.70
2023-03-21T07:28:36.050Z,8.80
2023-03-21T07:31:06.892Z,8.70
2023-03-21T07:33:33.995Z,8.70
2023-03-21T07:36:02.127Z,8.60
2023-03-21T07:38:31.069Z,8.60
2023-03-21T07:41:00.841Z,8.60
2023-03-21T07:43:27.986Z,8.60
2023-03-21T07:45:58.728Z,8.70
2023-03-21T07:48:25.864Z,8.70
2023-03-21T07:50:52.895Z,8.80
2023-03-21T07:53:20.145Z,8.80
2023-03-21T07:55:51.376Z,8.80
2023-03-21T07:58:18.640Z,8.80
2023-03-21T08:00:45.747Z,8.80
2023-03-21T08:03:13.382Z,8.90
2023-03-21T08:05:41.939Z,8.90
2023-03-21T08:08:09.190Z,9.00
2023-03-21T08:10:36.652Z,9.00
2023-03-21T08:13:04.320Z,9.20
2023-03-21T08:15:32.037Z,9.70
2023-03-21T08:18:00.481Z,10.10
2023-03-21T08:20:27.980Z,10.20
2023-03-21T08:22:55.470Z,10.50
2023-03-21T08:25:23.550Z,10.70
2023-03-21T08:27:51.362Z,10.60
2023-03-21T08:30:21.492Z,10.70
2023-03-21T08:32:49.240Z,10.70
2023-03-21T08:35:18.738Z,10.60
2023-03-21T08:37:46.143Z,10.80
2023-03-21T08:40:18.333Z,10.90
2023-03-21T08:42:46.668Z,10.80
2023-03-21T08:45:14.916Z,10.60
2023-03-21T08:47:41.984Z,10.50
2023-03-21T08:50:11.399Z,10.40
2023-03-21T08:52:38.450Z,10.30
2023-03-21T08:55:05.993Z,10.40
2023-03-21T08:57:33.279Z,10.30
2023-03-21T09:00:00.391Z,10.20
2023-03-21T09:02:27.592Z,10.20
2023-03-21T09:04:55.091Z,10.60
2023-03-21T09:07:22.367Z,11.30
2023-03-21T09:10:08.184Z,11.90
2023-03-21T09:12:41.295Z,12.10
2023-03-21T09:15:10.441Z,12.30
2023-03-21T09:17:42.212Z,12.60
2023-03-21T09:20:19.005Z,12.50
2023-03-21T09:22:47.784Z,12.70
2023-03-21T09:25:16.616Z,13.00
2023-03-21T09:27:46.062Z,12.70
2023-03-21T09:30:17.134Z,12.60
2023-03-21T09:32:47.512Z,12.90
2023-03-21T09:35:16.394Z,13.30
2023-03-21T09:37:43.712Z,13.80
2023-03-21T09:40:49.494Z,14.20
2023-03-21T09:43:25.695Z,14.50
2023-03-21T09:46:01.327Z,14.20
2023-03-21T09:48:58.678Z,14.50
2023-03-21T09:51:35.238Z,14.70
2023-03-21T09:54:12.167Z,15.00
2023-03-21T09:56:43.222Z,15.10
2023-03-21T09:59:20.725Z,15.30
2023-03-21T10:01:49.413Z,15.50
2023-03-21T10:04:19.022Z,15.30
2023-03-21T10:06:54.161Z,15.60
2023-03-21T10:09:24.930Z,15.90
2023-03-21T10:12:22.213Z,15.80
2023-03-21T10:14:57.074Z,15.70
2023-03-21T10:17:38.198Z,15.50
2023-03-21T10:20:21.537Z,15.20
2023-03-21T10:22:55.419Z,15.10
2023-03-21T10:25:33.163Z,15.00
2023-03-21T10:28:02.104Z,15.00
2023-03-21T10:30:42.681Z,15.10
2023-03-21T10:33:15.511Z,15.30
2023-03-21T10:35:46.788Z,15.30
2023-03-21T10:38:19.695Z,15.60
2023-03-21T10:40:47.417Z,15.80
2023-03-21T10:43:27.595Z,15.60
2023-03-21T10:45:56.047Z,15.10
2023-03-21T10:48:24.547Z,14.80
2023-03-21T10:50:56.267Z,14.50
2023-03-21T10:53:30.373Z,14.50
2023-03-21T10:56:00.730Z,14.30
2023-03-21T10:58:33.390Z,14.10
2023-03-21T11:01:07.695Z,13.90
2023-03-21T11:03:43.774Z,13.90
2023-03-21T11:06:27.336Z,14.00
2023-03-21T11:09:05.307Z,14.10
2023-03-21T11:11:41.057Z,14.00
2023-03-21T11:14:24.065Z,14.00
2023-03-21T11:16:51.954Z,14.60
2023-03-21T11:19:28.996Z,15.50
2023-03-21T11:21:58.986Z,15.60
2023-03-21T11:24:30.413Z,15.70
2023-03-21T11:26:59.286Z,15.50
2023-03-21T11:29:39.373Z,15.30
2023-03-21T11:32:21.046Z,15.40
2023-03-21T11:34:58.860Z,15.30
2023-03-21T11:37:33.797Z,15.40
2023-03-21T11:40:19.853Z,16.20
2023-03-21T11:42:49.883Z,16.70
2023-03-21T11:45:21.646Z,17.10
2023-03-21T11:47:50.752Z,17.30
2023-03-21T11:50:27.100Z,17.60
2023-03-21T11:53:40.670Z,17.90
2023-03-21T11:56:25.995Z,18.30
2023-03-21T11:59:17.601Z,18.70
2023-03-21T12:01:57.320Z,18.20
2023-03-21T12:04:54.666Z,17.70
2023-03-21T12:07:27.088Z,16.90
2023-03-21T12:09:56.780Z,16.40
2023-03-21T12:12:39.659Z,16.30
2023-03-21T12:15:27.179Z,16.40
2023-03-21T12:18:04.364Z,17.50
2023-03-21T12:21:00.392Z,17.90
2023-03-21T12:23:42.665Z,18.30
2023-03-21T12:26:25.008Z,18.50
2023-03-21T12:29:36.611Z,18.40
2023-03-21T12:32:17.155Z,17.90
2023-03-21T12:35:12.212Z,17.90
2023-03-21T12:37:53.843Z,18.30
2023-03-21T12:40:35.637Z,18.40
2023-03-21T12:43:27.594Z,17.90
2023-03-21T12:46:05.970Z,18.70
2023-03-21T12:48:45.049Z,19.00
2023-03-21T12:51:16.697Z,18.60
2023-03-21T12:54:08.596Z,18.30
2023-03-21T12:56:49.850Z,18.80
2023-03-21T12:59:26.084Z,19.20
2023-03-21T13:01:58.343Z,18.60
2023-03-21T13:05:00.173Z,18.00
2023-03-21T13:07:31.528Z,17.40
2023-03-21T13:09:59.588Z,17.30
2023-03-21T13:12:41.671Z,17.10
2023-03-21T13:15:37.919Z,17.20
2023-03-21T13:18:19.655Z,17.50
2023-03-21T13:20:58.826Z,18.20
2023-03-21T13:23:33.277Z,18.10
2023-03-21T13:26:00.367Z,17.80
2023-03-21T13:28:33.733Z,17.60
2023-03-21T13:31:25.053Z,17.70
2023-03-21T13:33:54.793Z,18.30
2023-03-21T13:36:28.305Z,19.00
2023-03-21T13:39:01.864Z,19.20
2023-03-21T13:41:47.644Z,19.30
2023-03-21T13:44:41.905Z,19.50
2023-03-21T13:47:41.450Z,19.60
2023-03-21T13:50:14.561Z,19.80
2023-03-21T13:52:41.748Z,19.90
2023-03-21T13:55:20.506Z,19.90
2023-03-21T13:57:47.887Z,19.90
2023-03-21T14:00:21.149Z,20.00
2023-03-21T14:03:07.240Z,20.00
2023-03-21T14:05:35.883Z,20.00
2023-03-21T14:08:15.565Z,19.80
2023-03-21T14:10:58.109Z,19.80
2023-03-21T14:13:28.541Z,19.80
2023-03-21T14:16:19.105Z,19.60
2023-03-21T14:18:55.026Z,19.20
2023-03-21T14:21:29.725Z,18.40
2023-03-21T14:24:08.200Z,17.90
2023-03-21T14:26:50.299Z,17.50
2023-03-21T14:29:33.801Z,17.30
2023-03-21T14:32:02.177Z,17.20
2023-03-21T14:34:32.029Z,17.10
2023-03-21T14:36:59.461Z,16.90
2023-03-21T14:39:32.134Z,16.60
2023-03-21T14:42:17.090Z,16.40
2023-03-21T14:44:55.903Z,16.40
2023-03-21T14:47:27.793Z,16.20
2023-03-21T14:49:56.493Z,16.10
2023-03-21T14:52:32.539Z,16.10
2023-03-21T14:55:02.148Z,16.50
2023-03-21T14:57:33.618Z,16.80
2023-03-21T15:00:14.609Z,16.50
2023-03-21T15:02:46.068Z,16.10
2023-03-21T15:05:33.525Z,15.80
2023-03-21T15:08:21.771Z,16.10
2023-03-21T15:11:07.501Z,16.80
2023-03-21T15:13:50.171Z,17.10
2023-03-21T15:16:17.871Z,17.30
2023-03-21T15:18:45.604Z,17.10
2023-03-21T15:21:26.886Z,16.70
2023-03-21T15:23:56.925Z,16.30
2023-03-21T15:26:26.530Z,15.90
2023-03-21T15:28:59.072Z,15.60
2023-03-21T15:31:30.591Z,15.40
2023-03-21T15:33:57.752Z,15.10
2023-03-21T15:36:33.060Z,15.00
2023-03-21T15:39:08.737Z,14.90
2023-03-21T15:41:36.020Z,15.40
2023-03-21T15:44:14.622Z,15.80
2023-03-21T15:46:48.384Z,15.90
2023-03-21T15:49:15.551Z,15.90
2023-03-21T15:51:49.177Z,15.90
2023-03-21T15:54:29.296Z,15.90
2023-03-21T15:57:01.390Z,16.00
2023-03-21T15:59:33.876Z,16.10
2023-03-21T16:02:01.837Z,16.00
2023-03-21T16:04:30.336Z,15.90
2023-03-21T16:07:02.332Z,15.80
2023-03-21T16:09:39.915Z,15.80
2023-03-21T16:12:12.398Z,15.60
2023-03-21T16:14:39.379Z,15.60
2023-03-21T16:17:33.962Z,15.20
2023-03-21T16:20:01.420Z,15.00
2023-03-21T16:22:30.159Z,14.90
2023-03-21T16:24:57.109Z,14.80
2023-03-21T16:27:24.022Z,14.80
2023-03-21T16:29:51.686Z,14.80
2023-03-21T16:32:20.671Z,14.70
2023-03-21T16:34:47.631Z,14.60
2023-03-21T16:37:16.160Z,14.50
2023-03-21T16:39:43.308Z,14.60
2023-03-21T16:42:12.926Z,14.60
2023-03-21T16:44:40.132Z,14.60
2023-03-21T16:47:18.351Z,14.70
2023-03-21T16:49:46.021Z,14.70
2023-03-21T16:52:14.223Z,14.80
2023-03-21T16:54:42.109Z,14.60
2023-03-21T16:57:29.109Z,14.60
2023-03-21T16:59:56.356Z,14.50
2023-03-21T17:02:26.274Z,14.30
2023-03-21T17:04:53.337Z,14.00
2023-03-21T17:07:21.075Z,14.00
2023-03-21T17:09:48.188Z,14.10
2023-03-21T17:12:16.596Z,14.20
2023-03-21T17:14:45.066Z,14.20
2023-03-21T17:17:17.340Z,14.20
2023-03-21T17:19:44.384Z,14.20
2023-03-21T17:22:14.086Z,14.30
2023-03-21T17:24:41.775Z,14.20
2023-03-21T17:27:13.586Z,14.00
2023-03-21T17:29:40.811Z,13.80
2023-03-21T17:32:08.270Z,13.60
2023-03-21T17:34:35.367Z,13.50
2023-03-21T17:37:02.818Z,13.40
2023-03-21T17:39:29.889Z,13.20
2023-03-21T17:41:57.202Z,13.10
2023-03-21T17:44:24.222Z,13.00
2023-03-21T17:46:52.503Z,12.90
2023-03-21T17:49:21.179Z,12.80
2023-03-21T17:51:48.328Z,12.70
2023-03-21T17:54:15.285Z,12.60
2023-03-21T17:56:42.414Z,12.50
2023-03-21T17:59:13.360Z,12.40
2023-03-21T18:01:40.838Z,12.40
2023-03-21T18:04:08.219Z,12.20
2023-03-21T18:06:37.492Z,12.20
2023-03-21T18:09:11.090Z,12.20
2023-03-21T18:11:39.522Z,12.20
2023-03-21T18:14:15.816Z,12.20
2023-03-21T18:16:45.688Z,12.10
2023-03-21T18:19:13.802Z,12.10
2023-03-21T18:21:45.318Z,12.00
2023-03-21T18:24:14.073Z,12.00
2023-03-21T18:26:41.805Z,12.00
2023-03-21T18:30:07.926Z,12.00
2023-03-21T18:32:06.225Z,12.00
2023-03-21T18:34:39.158Z,12.00
2023-03-21T18:37:07.974Z,11.90
2023-03-21T18:39:36.747Z,11.80
2023-03-21T18:42:04.798Z,11.80
2023-03-21T18:44:38.078Z,11.80
2023-03-21T18:47:06.640Z,11.70
2023-03-21T18:52:21.422Z,11.60
2023-03-21T18:54:49.321Z,11.60
2023-03-21T18:57:35.657Z,11.60
2023-03-21T19:00:12.827Z,11.50
2023-03-21T19:02:46.405Z,11.60
2023-03-21T19:05:21.035Z,11.50
2023-03-21T19:07:48.572Z,11.50
2023-03-21T19:10:19.582Z,11.40
2023-03-21T19:12:52.587Z,11.40
2023-03-21T19:15:21.805Z,11.40
2023-03-21T19:20:38.354Z,11.20
2023-03-21T19:23:08.756Z,11.10
2023-03-21T19:25:37.369Z,11.00
2023-03-21T19:28:04.768Z,11.00
2023-03-21T19:30:32.023Z,11.00
2023-03-21T19:32:59.098Z,11.00
2023-03-21T19:35:26.251Z,10.90
2023-03-21T19:37:53.339Z,10.90
2023-03-21T19:40:20.615Z,10.80
2023-03-21T19:42:47.766Z,10.70
2023-03-21T19:45:15.054Z,10.60
2023-03-21T19:47:41.996Z,10.50
2023-03-21T19:52:57.264Z,10.40
2023-03-21T19:55:25.245Z,10.50
2023-03-21T19:57:53.794Z,10.50
2023-03-21T20:00:21.543Z,10.40
2023-03-21T20:02:48.596Z,10.40
2023-03-21T20:05:17.657Z,10.20
2023-03-21T20:07:44.640Z,10.20
2023-03-21T20:10:11.802Z,10.00
2023-03-21T20:12:38.796Z,10.00
2023-03-21T20:15:17.288Z,10.00
2023-03-21T20:17:47.656Z,10.00
2023-03-21T20:20:16.585Z,10.00
2023-03-21T20:25:33.872Z,10.00
2023-03-21T20:28:15.208Z,9.90
2023-03-21T20:30:53.382Z,9.90
2023-03-21T20:33:20.486Z,9.90
2023-03-21T20:38:39.487Z,9.90
2023-03-21T20:41:07.561Z,9.80
2023-03-21T20:46:22.817Z,9.80
2023-03-21T20:48:49.834Z,9.80
2023-03-21T20:52:35.896Z,9.80
2023-03-21T20:54:05.608Z,9.80
2023-03-21T20:56:33.014Z,9.80
2023-03-21T20:59:14.979Z,9.90
2023-03-21T21:01:43.544Z,10.00
2023-03-21T21:04:11.660Z,10.00
2023-03-21T21:06:39.286Z,10.10
2023-03-21T21:09:06.486Z,10.00
2023-03-21T21:14:21.883Z,10.00
2023-03-21T21:16:48.935Z,9.90
2023-03-21T21:19:21.901Z,9.80
2023-03-21T21:21:50.139Z,9.80
2023-03-21T21:24:17.074Z,9.90
2023-03-21T21:26:46.441Z,9.90
2023-03-21T21:29:17.776Z,9.90
2023-03-21T21:31:51.534Z,9.80
2023-03-21T21:34:20.143Z,9.90
2023-03-21T21:36:47.471Z,9.90
2023-03-21T21:39:17.559Z,9.90
2023-03-21T21:41:44.573Z,9.90
2023-03-21T21:44:11.565Z,9.90
2023-03-21T21:46:39.142Z,9.90
2023-03-21T21:49:06.806Z,9.90
2023-03-21T21:51:34.099Z,9.90
2023-03-21T21:54:04.008Z,9.90
2023-03-21T21:56:38.752Z,9.80
2023-03-21T21:59:05.919Z,9.70
2023-03-21T22:01:38.621Z,9.60
2023-03-21T22:04:11.375Z,9.60
2023-03-21T22:06:38.327Z,9.50
2023-03-21T22:09:06.995Z,9.50
2023-03-21T22:11:34.487Z,9.40
2023-03-21T22:14:01.564Z,9.40
2023-03-21T22:16:28.969Z,9.40
2023-03-21T22:18:56.197Z,9.40
2023-03-21T22:21:23.452Z,9.40
2023-03-21T22:23:50.929Z,9.40
2023-03-21T22:26:17.929Z,9.30
2023-03-21T22:28:44.924Z,9.40
2023-03-21T22:31:16.413Z,9.40
2023-03-21T22:33:44.091Z,9.40
2023-03-21T22:36:14.245Z,9.30
2023-03-21T22:38:42.191Z,9.30
2023-03-21T22:41:09.547Z,9.30
2023-03-21T22:43:36.580Z,9.20
2023-03-21T22:46:04.696Z,9.20
2023-03-21T22:48:32.443Z,9.20
2023-03-21T22:51:00.646Z,9.20
2023-03-21T22:53:28.430Z,9.20
2023-03-21T22:55:56.033Z,9.10
2023-03-21T22:58:23.096Z,9.10
2023-03-21T23:00:50.122Z,9.00
2023-03-21T23:03:17.213Z,9.00
2023-03-21T23:05:45.508Z,9.00
2023-03-21T23:08:13.450Z,9.00
2023-03-21T23:10:43.574Z,8.90
2023-03-21T23:13:11.180Z,8.90
2023-03-21T23:15:39.713Z,8.90
2023-03-21T23:18:07.424Z,8.90
2023-03-21T23:20:35.048Z,8.80
2023-03-21T23:23:02.218Z,8.70
2023-03-21T23:25:30.562Z,8.70
2023-03-21T23:27:57.858Z,8.60
2023-03-21T23:30:24.904Z,8.50
2023-03-21T23:32:52.075Z,8.50
2023-03-21T23:35:19.249Z,8.50
2023-03-21T23:37:53.071Z,8.40
2023-03-21T23:40:21.399Z,8.30
2023-03-21T23:42:48.881Z,8.30
2023-03-21T23:45:16.441Z,8.30
2023-03-21T23:47:43.636Z,8.30
2023-03-21T23:50:11.832Z,8.20
2023-03-21T23:52:41.684Z,8.20
2023-03-21T23:55:09.248Z,8.20
2023-03-21T23:57:38.339Z,8.20
